createdAt,value
2018-01-18T00:01:15.574Z,7.68
2018-01-18T00:03:43.322Z,10.30
2018-01-18T00:06:11.068Z,8.40
2018-01-18T00:08:38.867Z,7.32
2018-01-18T00:11:06.615Z,10.07
2018-01-18T00:13:34.358Z,8.57
2018-01-18T00:16:02.163Z,12.30
2018-01-18T00:18:30.677Z,7.30
2018-01-18T00:20:58.415Z,8.20
2018-01-18T00:23:26.978Z,9.13
2018-01-18T00:25:54.726Z,11.25
2018-01-18T00:28:22.472Z,8.05
2018-01-18T00:30:50.274Z,8.95
2018-01-18T00:33:18.786Z,8.18
2018-01-18T00:35:46.533Z,9.73
2018-01-18T00:38:14.343Z,13.70
2018-01-18T00:40:42.093Z,9.88
2018-01-18T00:43:09.847Z,10.45
2018-01-18T00:45:37.642Z,9.57
2018-01-18T00:48:05.393Z,13.35
2018-01-18T00:50:33.903Z,7.97
2018-01-18T00:53:02.467Z,9.00
2018-01-18T00:55:30.215Z,10.05
2018-01-18T00:57:57.959Z,6.70
2018-01-18T01:00:25.759Z,13.20
2018-01-18T01:02:53.507Z,7.80
2018-01-18T01:05:21.256Z,7.95
2018-01-18T01:07:49.050Z,9.57
2018-01-18T01:10:17.553Z,9.88
2018-01-18T01:12:45.293Z,8.10
2018-01-18T01:15:13.861Z,8.80
2018-01-18T01:17:41.608Z,6.85
2018-01-18T01:20:09.347Z,7.80
2018-01-18T01:22:37.146Z,9.10
2018-01-18T01:25:04.890Z,6.68
2018-01-18T01:27:32.634Z,7.62
2018-01-18T01:30:00.429Z,7.05
2018-01-18T01:32:28.184Z,6.60
2018-01-18T01:34:55.927Z,7.60
2018-01-18T01:37:23.730Z,7.45
2018-01-18T01:39:52.442Z,8.63
2018-01-18T01:42:20.182Z,7.28
2018-01-18T01:44:48.752Z,6.60
2018-01-18T01:47:17.262Z,7.50
2018-01-18T01:49:45.008Z,11.35
2018-01-18T01:52:13.596Z,8.50
2018-01-18T01:54:41.334Z,7.18
2018-01-18T01:57:09.838Z,6.95
2018-01-18T01:59:37.634Z,6.55
2018-01-18T02:02:05.378Z,6.90
2018-01-18T02:04:33.115Z,5.40
2018-01-18T02:07:01.677Z,8.00
2018-01-18T02:09:30.187Z,6.28
2018-01-18T02:11:57.927Z,7.20
2018-01-18T02:14:26.500Z,5.37
2018-01-18T02:16:55.019Z,7.00
2018-01-18T02:19:22.766Z,10.38
2018-01-18T02:21:50.579Z,6.55
2018-01-18T02:24:18.328Z,8.80
2018-01-18T02:26:46.071Z,5.22
2018-01-18T02:29:13.875Z,4.82
2018-01-18T02:31:41.623Z,6.30
2018-01-18T02:34:09.369Z,5.37
2018-01-18T02:36:37.166Z,7.22
2018-01-18T02:39:04.914Z,4.60
2018-01-18T02:41:32.664Z,5.07
2018-01-18T02:44:00.646Z,6.60
2018-01-18T02:46:28.451Z,4.18
2018-01-18T02:48:56.195Z,9.32
2018-01-18T02:51:24.758Z,5.78
2018-01-18T02:53:52.506Z,5.10
2018-01-18T02:56:20.252Z,6.05
2018-01-18T02:58:48.050Z,6.68
2018-01-18T03:01:16.574Z,7.12
2018-01-18T03:03:44.319Z,6.32
2018-01-18T03:06:12.130Z,5.68
2018-01-18T03:08:39.870Z,6.18
2018-01-18T03:11:07.639Z,4.85
2018-01-18T03:13:35.442Z,5.15
2018-01-18T03:16:03.951Z,9.32
2018-01-18T03:18:31.695Z,5.68
2018-01-18T03:21:00.259Z,6.15
2018-01-18T03:23:28.767Z,4.72
2018-01-18T03:25:56.512Z,4.20
2018-01-18T03:28:25.077Z,5.85
2018-01-18T03:30:52.823Z,4.40
2018-01-18T03:33:20.570Z,3.33
2018-01-18T03:35:48.374Z,4.75
2018-01-18T03:38:16.890Z,4.70
2018-01-18T03:40:44.630Z,5.28
2018-01-18T03:43:12.426Z,5.43
2018-01-18T03:45:40.178Z,6.53
2018-01-18T03:48:07.920Z,4.68
2018-01-18T03:50:35.715Z,4.85
2018-01-18T03:53:03.467Z,3.80
2018-01-18T03:55:31.215Z,4.95
2018-01-18T03:57:59.014Z,4.30
2018-01-18T04:00:27.523Z,4.25
2018-01-18T04:02:56.038Z,3.67
2018-01-18T04:05:23.839Z,5.62
2018-01-18T04:07:51.586Z,3.87
2018-01-18T04:10:19.334Z,5.55
2018-01-18T04:12:47.139Z,4.82
2018-01-18T04:15:14.894Z,5.65
2018-01-18T04:17:42.642Z,5.37
2018-01-18T04:20:10.443Z,10.00
2018-01-18T04:22:38.954Z,8.02
2018-01-18T04:25:06.698Z,4.28
2018-01-18T04:27:34.517Z,9.88
2018-01-18T04:30:02.267Z,9.25
2018-01-18T04:32:30.015Z,6.45
2018-01-18T04:34:57.818Z,11.43
2018-01-18T04:37:26.329Z,6.00
2018-01-18T04:39:54.076Z,8.48
2018-01-18T04:42:21.877Z,6.40
2018-01-18T04:44:49.619Z,6.65
2018-01-18T04:47:17.358Z,6.03
2018-01-18T04:49:45.928Z,6.72
2018-01-18T04:52:14.437Z,9.30
2018-01-18T04:54:42.178Z,9.32
2018-01-18T04:57:10.749Z,14.60
2018-01-18T04:59:39.257Z,8.35
2018-01-18T05:02:06.999Z,7.10
2018-01-18T05:04:35.565Z,11.05
2018-01-18T05:07:04.086Z,7.65
2018-01-18T05:09:31.832Z,7.28
2018-01-18T05:11:59.629Z,8.35
2018-01-18T05:14:27.382Z,10.18
2018-01-18T05:16:55.134Z,7.75
2018-01-18T05:19:22.937Z,7.30
2018-01-18T05:21:50.689Z,21.83
2018-01-18T05:24:18.448Z,6.12
2018-01-18T05:26:46.250Z,9.77
2018-01-18T05:29:14.763Z,9.75
2018-01-18T05:31:42.501Z,6.25
2018-01-18T05:34:10.303Z,9.90
2018-01-18T05:36:38.054Z,8.32
2018-01-18T05:39:05.810Z,6.30
2018-01-18T05:41:33.610Z,9.35
2018-01-18T05:44:01.351Z,7.00
2018-01-18T05:46:29.097Z,7.82
2018-01-18T05:48:56.898Z,10.50
2018-01-18T05:51:24.651Z,11.18
2018-01-18T05:53:52.407Z,13.15
2018-01-18T05:56:20.208Z,13.13
2018-01-18T05:58:48.753Z,12.10
2018-01-18T06:01:16.547Z,10.13
2018-01-18T06:03:45.138Z,7.07
2018-01-18T06:06:12.885Z,10.32
2018-01-18T06:08:41.402Z,11.63
2018-01-18T06:11:09.219Z,15.40
2018-01-18T06:13:36.999Z,9.40
2018-01-18T06:16:05.515Z,14.80
2018-01-18T06:18:33.320Z,14.85
2018-01-18T06:21:01.842Z,11.82
2018-01-18T06:23:29.599Z,17.45
2018-01-18T06:25:57.407Z,12.45
2018-01-18T06:28:25.153Z,12.55
2018-01-18T06:30:52.914Z,15.75
2018-01-18T06:33:21.481Z,16.73
2018-01-18T06:35:49.233Z,15.23
2018-01-18T06:38:16.986Z,19.25
2018-01-18T06:40:44.790Z,12.95
2018-01-18T06:43:12.531Z,8.60
2018-01-18T06:45:40.302Z,11.38
2018-01-18T06:48:08.101Z,12.55
2018-01-18T06:50:35.855Z,11.18
2018-01-18T06:53:03.602Z,15.25
2018-01-18T06:55:31.418Z,18.62
2018-01-18T06:57:59.171Z,11.12
2018-01-18T07:00:27.683Z,13.38
2018-01-18T07:02:55.485Z,12.43
2018-01-18T07:05:23.247Z,16.80
2018-01-18T07:07:51.002Z,17.25
2018-01-18T07:10:18.806Z,19.00
2018-01-18T07:12:46.558Z,21.27
2018-01-18T07:15:15.091Z,18.95
2018-01-18T07:17:42.919Z,23.10
2018-01-18T07:20:10.684Z,27.13
2018-01-18T07:22:38.438Z,24.33
2018-01-18T07:25:06.265Z,23.95
2018-01-18T07:27:34.027Z,14.82
2018-01-18T07:30:01.820Z,16.33
2018-01-18T07:32:29.633Z,11.88
2018-01-18T07:35:15.893Z,22.33
2018-01-18T07:37:43.701Z,17.33
2018-01-18T07:40:11.486Z,17.25
2018-01-18T07:42:39.271Z,13.62
2018-01-18T07:45:07.106Z,13.88
2018-01-18T07:47:35.634Z,12.07
2018-01-18T07:50:03.403Z,9.98
2018-01-18T07:52:31.217Z,15.40
2018-01-18T07:54:59.734Z,12.90
2018-01-18T07:57:27.488Z,15.52
2018-01-18T07:59:55.338Z,14.18
2018-01-18T08:02:23.095Z,13.75
2018-01-18T08:04:50.870Z,13.62
2018-01-18T08:07:18.678Z,14.63
2018-01-18T08:09:46.465Z,10.93
2018-01-18T08:12:14.992Z,10.35
2018-01-18T08:14:42.785Z,9.70
2018-01-18T08:17:10.590Z,17.20
2018-01-18T08:19:38.365Z,15.00
2018-01-18T08:22:06.174Z,13.90
2018-01-18T08:24:33.926Z,12.82
2018-01-18T08:27:01.684Z,13.45
2018-01-18T08:29:29.491Z,15.45
2018-01-18T08:31:58.028Z,9.40
2018-01-18T08:34:25.790Z,9.73
2018-01-18T08:36:53.628Z,12.07
2018-01-18T08:39:21.374Z,12.05
2018-01-18T08:41:49.127Z,13.52
2018-01-18T08:44:16.933Z,8.43
2018-01-18T08:46:44.719Z,10.85
2018-01-18T08:49:12.476Z,10.75
2018-01-18T08:51:40.282Z,11.50
2018-01-18T08:54:08.055Z,8.93
2018-01-18T08:56:35.806Z,6.90
2018-01-18T08:59:03.606Z,7.62
2018-01-18T09:01:31.359Z,8.07
2018-01-18T09:03:59.112Z,8.73
2018-01-18T09:06:26.916Z,10.27
2018-01-18T09:08:54.675Z,13.82
2018-01-18T09:11:22.427Z,9.45
2018-01-18T09:13:50.242Z,16.95
2018-01-18T09:16:17.986Z,8.07
2018-01-18T09:18:46.547Z,9.27
2018-01-18T09:21:14.362Z,10.02
2018-01-18T09:23:42.119Z,14.13
2018-01-18T09:26:09.887Z,16.15
2018-01-18T09:28:37.700Z,13.75
2018-01-18T09:31:05.446Z,8.65
2018-01-18T09:33:33.231Z,11.00
2018-01-18T09:36:01.802Z,9.60
2018-01-18T09:38:29.570Z,9.63
2018-01-18T09:40:58.083Z,13.38
2018-01-18T09:43:25.886Z,8.68
2018-01-18T09:45:53.643Z,9.23
2018-01-18T09:48:21.394Z,10.60
2018-01-18T09:50:49.207Z,12.88
2018-01-18T09:53:17.721Z,10.88
2018-01-18T09:55:45.472Z,10.85
2018-01-18T09:58:13.282Z,10.40
2018-01-18T10:00:41.079Z,6.87
2018-01-18T10:03:08.851Z,5.50
2018-01-18T10:05:36.655Z,7.60
2018-01-18T10:08:04.489Z,12.63
2018-01-18T10:10:32.243Z,12.05
2018-01-18T10:13:00.046Z,14.27
2018-01-18T10:15:27.811Z,10.13
2018-01-18T10:17:55.584Z,9.65
2018-01-18T10:20:23.407Z,12.45
2018-01-18T10:22:51.158Z,13.43
2018-01-18T10:25:18.947Z,14.15
2018-01-18T10:27:46.756Z,27.83
2018-01-18T10:30:15.271Z,18.85
2018-01-18T10:32:43.028Z,18.48
2018-01-18T10:35:10.854Z,10.70
2018-01-18T10:37:39.387Z,8.45
2018-01-18T10:40:07.136Z,9.52
2018-01-18T10:42:34.947Z,10.70
2018-01-18T10:45:02.790Z,11.95
2018-01-18T10:47:31.314Z,11.02
2018-01-18T10:49:59.889Z,13.60
2018-01-18T10:52:28.404Z,8.60
2018-01-18T10:54:56.967Z,8.60
2018-01-18T10:57:24.768Z,11.35
2018-01-18T10:59:53.288Z,15.48
2018-01-18T11:02:21.836Z,11.15
2018-01-18T11:04:49.648Z,8.40
2018-01-18T11:07:17.402Z,10.48
2018-01-18T11:09:45.147Z,9.68
2018-01-18T11:12:13.725Z,16.92
2018-01-18T11:14:42.239Z,8.25
2018-01-18T11:17:10.003Z,9.82
2018-01-18T11:19:37.810Z,12.45
2018-01-18T11:22:05.563Z,11.98
2018-01-18T11:24:33.348Z,15.98
2018-01-18T11:27:02.015Z,10.38
2018-01-18T11:29:29.767Z,10.82
2018-01-18T11:31:57.505Z,6.40
2018-01-18T11:34:25.328Z,7.35
2018-01-18T11:36:53.871Z,14.13
2018-01-18T11:39:21.633Z,14.07
2018-01-18T11:41:49.447Z,19.30
2018-01-18T11:44:17.228Z,11.57
2018-01-18T11:46:44.986Z,13.43
2018-01-18T11:49:12.803Z,9.48
2018-01-18T11:51:40.576Z,11.05
2018-01-18T11:54:09.091Z,7.20
2018-01-18T11:56:36.902Z,25.17
2018-01-18T11:59:04.651Z,15.93
2018-01-18T12:01:32.402Z,10.88
2018-01-18T12:04:01.044Z,12.45
2018-01-18T12:06:28.804Z,15.57
2018-01-18T12:08:56.572Z,14.82
2018-01-18T12:11:24.380Z,12.20
2018-01-18T12:13:52.136Z,10.60
2018-01-18T12:16:19.890Z,11.38
2018-01-18T12:18:47.770Z,22.02
2018-01-18T12:21:15.519Z,19.30
2018-01-18T12:23:43.285Z,15.57
2018-01-18T12:26:11.099Z,11.93
2018-01-18T12:28:39.606Z,11.57
2018-01-18T12:31:07.356Z,12.23
2018-01-18T12:33:35.166Z,13.77
2018-01-18T12:36:02.916Z,5.78
2018-01-18T12:38:30.666Z,8.95
2018-01-18T12:40:58.471Z,5.90
2018-01-18T12:43:26.991Z,13.45
2018-01-18T12:45:54.742Z,7.60
2018-01-18T12:48:22.552Z,10.13
2018-01-18T12:50:50.298Z,7.32
2018-01-18T12:53:18.049Z,10.73
2018-01-18T12:55:45.896Z,10.30
2018-01-18T12:58:13.655Z,10.43
2018-01-18T13:00:41.428Z,14.02
2018-01-18T13:03:09.240Z,14.48
2018-01-18T13:05:36.994Z,13.38
2018-01-18T13:08:04.747Z,10.80
2018-01-18T13:10:32.588Z,11.50
2018-01-18T13:13:00.345Z,12.23
2018-01-18T13:15:28.103Z,9.70
2018-01-18T13:17:55.957Z,10.02
2018-01-18T13:20:23.775Z,8.68
2018-01-18T13:22:51.522Z,11.05
2018-01-18T13:25:19.334Z,13.25
2018-01-18T13:27:47.135Z,10.63
2018-01-18T13:30:14.925Z,8.20
2018-01-18T13:32:42.776Z,10.70
2018-01-18T13:35:10.523Z,9.60
2018-01-18T13:37:38.295Z,11.23
2018-01-18T13:40:06.099Z,11.95
2018-01-18T13:42:33.862Z,9.75
2018-01-18T13:45:01.613Z,10.20
2018-01-18T13:47:30.194Z,8.80
2018-01-18T13:49:58.718Z,7.25
2018-01-18T13:52:26.534Z,9.35
2018-01-18T13:54:55.142Z,6.72
2018-01-18T13:57:22.908Z,12.10
2018-01-18T13:59:50.663Z,9.93
2018-01-18T14:02:18.490Z,7.05
2018-01-18T14:04:46.251Z,6.60
2018-01-18T14:07:14.000Z,6.85
2018-01-18T14:09:41.806Z,4.18
2018-01-18T14:12:09.560Z,7.35
2018-01-18T14:14:38.071Z,8.07
2018-01-18T14:17:05.889Z,12.82
2018-01-18T14:19:34.436Z,3.20
2018-01-18T14:22:02.947Z,5.30
2018-01-18T14:24:31.528Z,3.17
2018-01-18T14:27:00.045Z,2.37
2018-01-18T14:29:27.789Z,5.43
2018-01-18T14:31:55.606Z,4.50
2018-01-18T14:34:23.351Z,4.40
2018-01-18T14:36:51.114Z,4.25
2018-01-18T14:39:18.918Z,3.33
2018-01-18T14:41:47.452Z,3.83
2018-01-18T14:44:15.203Z,4.43
2018-01-18T14:46:43.024Z,4.87
2018-01-18T14:49:11.560Z,19.27
2018-01-18T14:51:39.313Z,5.43
2018-01-18T14:54:07.112Z,3.70
2018-01-18T14:56:34.859Z,3.65
2018-01-18T14:59:02.600Z,6.03
2018-01-18T15:01:30.391Z,6.95
2018-01-18T15:03:58.137Z,7.82
2018-01-18T15:06:25.880Z,6.45
2018-01-18T15:08:53.683Z,4.53
2018-01-18T15:11:21.450Z,7.10
2018-01-18T15:13:49.200Z,3.40
2018-01-18T15:16:17.006Z,4.93
2018-01-18T15:18:44.747Z,6.80
2018-01-18T15:21:13.258Z,6.53
2018-01-18T15:23:41.063Z,10.57
2018-01-18T15:26:08.825Z,5.95
2018-01-18T15:28:36.580Z,7.22
2018-01-18T15:31:04.383Z,10.85
2018-01-18T15:33:32.898Z,7.05
2018-01-18T15:36:00.664Z,10.07
2018-01-18T15:38:29.229Z,13.50
2018-01-18T15:40:56.971Z,6.53
2018-01-18T15:43:24.717Z,7.85
2018-01-18T15:45:52.572Z,5.20
2018-01-18T15:48:21.802Z,10.95
2018-01-18T15:50:50.854Z,6.25
2018-01-18T15:53:24.696Z,8.27
2018-01-18T15:55:55.136Z,6.78
2018-01-18T15:58:24.149Z,5.35
2018-01-18T16:00:52.668Z,5.05
2018-01-18T16:03:21.339Z,8.75
2018-01-18T16:05:49.189Z,9.15
2018-01-18T16:08:16.944Z,6.32
2018-01-18T16:10:44.682Z,8.95
2018-01-18T16:13:12.493Z,6.22
2018-01-18T16:15:41.007Z,11.30
2018-01-18T16:18:08.753Z,10.77
2018-01-18T16:20:36.710Z,8.88
2018-01-18T16:23:05.223Z,5.60
2018-01-18T16:25:32.958Z,7.03
2018-01-18T16:28:00.806Z,9.05
2018-01-18T16:30:29.323Z,4.97
2018-01-18T16:32:57.091Z,6.32
2018-01-18T16:35:24.895Z,8.68
2018-01-18T16:37:52.790Z,5.30
2018-01-18T16:40:20.547Z,7.80
2018-01-18T16:42:49.135Z,9.77
2018-01-18T16:45:16.879Z,7.22
2018-01-18T16:47:45.394Z,7.82
2018-01-18T16:50:13.192Z,7.50
2018-01-18T16:52:40.943Z,6.95
2018-01-18T16:55:08.762Z,8.48
2018-01-18T16:57:37.386Z,13.30
2018-01-18T17:00:05.211Z,9.02
2018-01-18T17:02:33.761Z,5.50
2018-01-18T17:05:02.358Z,5.90
2018-01-18T17:07:30.873Z,13.98
2018-01-18T17:09:58.626Z,5.85
2018-01-18T17:12:26.426Z,4.60
2018-01-18T17:14:54.180Z,4.82
2018-01-18T17:17:21.936Z,5.22
2018-01-18T17:19:49.749Z,4.10
2018-01-18T17:22:18.270Z,2.85
2018-01-18T17:24:46.022Z,4.37
2018-01-18T17:27:13.827Z,3.92
2018-01-18T17:29:41.586Z,4.05
2018-01-18T17:32:09.337Z,3.80
2018-01-18T17:34:37.141Z,5.07
2018-01-18T17:37:05.651Z,3.78
2018-01-18T17:39:33.398Z,5.37
2018-01-18T17:42:01.211Z,4.35
2018-01-18T17:44:28.955Z,6.60
2018-01-18T17:46:56.700Z,5.45
2018-01-18T17:49:24.504Z,3.22
2018-01-18T17:51:52.272Z,5.22
2018-01-18T17:54:20.058Z,6.50
2018-01-18T17:56:48.626Z,2.95
2018-01-18T17:59:17.139Z,5.70
2018-01-18T18:01:44.878Z,3.12
2018-01-18T18:04:13.442Z,6.03
2018-01-18T18:06:41.955Z,1.75
2018-01-18T18:09:09.704Z,6.18
2018-01-18T18:11:37.512Z,6.10
2018-01-18T18:14:05.274Z,3.20
2018-01-18T18:16:33.026Z,3.70
2018-01-18T18:19:00.835Z,6.30
2018-01-18T18:21:29.345Z,2.72
2018-01-18T18:23:57.099Z,4.72
2018-01-18T18:26:24.896Z,5.18
2018-01-18T18:28:52.646Z,2.85
2018-01-18T18:31:20.392Z,3.20
2018-01-18T18:33:51.213Z,10.80
2018-01-18T18:36:22.252Z,5.62
2018-01-18T18:41:29.710Z,2.87
2018-01-18T18:43:57.710Z,11.50
2018-01-18T18:46:26.235Z,10.90
2018-01-18T18:48:54.042Z,6.85
2018-01-18T18:51:22.617Z,6.40
2018-01-18T18:53:50.375Z,6.68
2018-01-18T18:56:18.116Z,3.37
2018-01-18T18:58:45.943Z,3.85
2018-01-18T19:01:13.736Z,2.97
2018-01-18T19:03:41.491Z,5.07
2018-01-18T19:06:09.290Z,4.65
2018-01-18T19:08:37.034Z,4.35
2018-01-18T19:11:04.796Z,2.92
2018-01-18T19:13:32.623Z,2.62
2018-01-18T19:16:00.384Z,4.75
2018-01-18T19:18:28.134Z,4.35
2018-01-18T19:20:55.948Z,5.85
2018-01-18T19:23:23.708Z,3.50
2018-01-18T19:25:51.534Z,2.97
2018-01-18T19:28:19.406Z,4.28
2018-01-18T19:30:47.164Z,2.62
2018-01-18T19:33:15.075Z,2.35
2018-01-18T19:35:43.015Z,3.75
2018-01-18T19:38:12.512Z,2.25
2018-01-18T19:40:42.126Z,2.55
2018-01-18T19:43:09.951Z,1.58
2018-01-18T19:45:37.731Z,3.80
2018-01-18T19:48:05.492Z,3.35
2018-01-18T19:50:33.323Z,3.00
2018-01-18T19:53:02.603Z,1.70
2018-01-18T19:55:31.133Z,3.35
2018-01-18T19:57:58.951Z,1.48
2018-01-18T20:00:27.868Z,3.10
2018-01-18T20:02:55.654Z,2.00
2018-01-18T20:05:23.505Z,1.58
2018-01-18T20:07:51.277Z,2.15
2018-01-18T20:10:19.037Z,1.85
2018-01-18T20:12:46.849Z,1.73
2018-01-18T20:15:15.388Z,1.48
2018-01-18T20:17:43.135Z,2.45
2018-01-18T20:20:11.007Z,1.85
2018-01-18T20:22:38.917Z,3.25
2018-01-18T20:25:08.021Z,1.83
2018-01-18T20:27:36.587Z,1.87
2018-01-18T20:30:04.350Z,1.77
2018-01-18T20:32:32.886Z,2.25
2018-01-18T20:35:00.695Z,1.48
2018-01-18T20:37:29.222Z,0.70
2018-01-18T20:39:56.966Z,0.80
2018-01-18T20:42:24.950Z,1.85
2018-01-18T20:44:52.727Z,4.03
2018-01-18T20:47:20.547Z,1.73
2018-01-18T20:49:48.359Z,1.60
2018-01-18T20:52:16.146Z,3.15
2018-01-18T20:54:43.898Z,1.58
2018-01-18T20:57:11.743Z,2.15
2018-01-18T20:59:39.487Z,1.90
2018-01-18T21:02:07.226Z,2.35
2018-01-18T21:04:35.213Z,2.87
2018-01-18T21:07:02.964Z,2.40
2018-01-18T21:09:30.720Z,1.55
2018-01-18T21:11:58.531Z,1.70
2018-01-18T21:14:26.280Z,1.30
2018-01-18T21:16:54.789Z,1.60
2018-01-18T21:19:22.599Z,5.03
2018-01-18T21:21:50.351Z,1.73
2018-01-18T21:24:18.191Z,0.82
2018-01-18T21:26:46.953Z,1.60
2018-01-18T21:29:15.516Z,1.50
2018-01-18T21:31:43.286Z,3.92
2018-01-18T21:34:11.140Z,1.50
2018-01-18T21:36:38.892Z,0.95
2018-01-18T21:39:06.638Z,1.77
2018-01-18T21:41:34.445Z,2.20
2018-01-18T21:44:02.192Z,1.62
2018-01-18T21:46:29.934Z,5.80
2018-01-18T21:48:57.743Z,4.87
2018-01-18T21:51:26.259Z,2.67
2018-01-18T21:53:54.201Z,3.25
2018-01-18T21:56:22.766Z,2.60
2018-01-18T21:58:50.511Z,3.05
2018-01-18T22:01:18.257Z,3.25
2018-01-18T22:03:46.072Z,3.35
2018-01-18T22:06:14.037Z,1.87
2018-01-18T22:08:41.815Z,1.62
2018-01-18T22:11:09.617Z,1.45
2018-01-18T22:13:37.470Z,1.50
2018-01-18T22:16:05.240Z,1.12
2018-01-18T22:18:33.052Z,1.52
2018-01-18T22:21:00.808Z,1.12
2018-01-18T22:23:29.332Z,0.82
2018-01-18T22:25:57.147Z,2.65
2018-01-18T22:28:25.662Z,1.37
2018-01-18T22:30:53.424Z,0.85
2018-01-18T22:33:21.429Z,1.15
2018-01-18T22:35:49.230Z,1.48
2018-01-18T22:38:16.994Z,1.62
2018-01-18T22:40:44.802Z,2.83
2018-01-18T22:43:13.548Z,1.85
2018-01-18T22:45:41.306Z,1.10
2018-01-18T22:48:09.109Z,0.60
2018-01-18T22:50:36.854Z,1.62
2018-01-18T22:53:04.615Z,1.20
2018-01-18T22:55:32.433Z,4.70
2018-01-18T22:58:00.937Z,1.12
2018-01-18T23:00:28.684Z,1.95
2018-01-18T23:02:57.302Z,1.42
2018-01-18T23:05:25.121Z,2.03
2018-01-18T23:07:53.631Z,1.55
2018-01-18T23:10:21.510Z,12.20
2018-01-18T23:12:49.253Z,8.60
2018-01-18T23:15:17.068Z,4.50
2018-01-18T23:17:44.874Z,1.92
2018-01-18T23:20:12.716Z,6.12
2018-01-18T23:22:41.227Z,1.98
2018-01-18T23:25:09.035Z,3.53
2018-01-18T23:27:36.779Z,1.42
2018-01-18T23:30:04.531Z,5.18
2018-01-18T23:32:33.095Z,4.43
2018-01-18T23:35:00.839Z,2.00
2018-01-18T23:37:28.590Z,2.28
2018-01-18T23:39:57.158Z,3.37
2018-01-18T23:42:25.667Z,1.15
2018-01-18T23:44:53.422Z,1.15
2018-01-18T23:47:21.219Z,1.75
2018-01-18T23:49:48.974Z,1.52
2018-01-18T23:52:16.739Z,2.65
2018-01-18T23:54:44.542Z,1.67
2018-01-18T23:57:13.058Z,2.35
2018-01-18T23:59:40.807Z,1.62
